PWSweather.com
Personal Weather Stations
Station Observations
KVAGLENALL
West Henrico, Glen Allen, VA 23060-6503

West HenricoGlen Allen, VA 23060-6503

Lat: 37.6554, Lon: -77.5693

Elevation: 273

Station Type: Davis Vantage Pro II

www.glenallenweather.com

High Low Average
Temperature 73.2°F22.9°C 61.7°F16.5°C 66.8°F19.3°C
Dew Point 72.0°F22.2°C 58.8°F14.9°C 64.6°F18.1°C
Winds 12.1 mph 19.5 kmh 0.1 mph 0.2 kmh 4.0 mph ESE6.4 kmh ESE
Wind Gusts 16.2 mph26.1 kmh 1.1 mph1.8 kmh 8.0 mph12.9 kmh
Humidity 96% 88% 93%
Pressure 30.29 in1025.7 mb 30.00 in1015.9 mb -
Precipitation 0.00 in0.0 mm - -
Hour Temp Dew Point Humidity Winds Wind Gusts Pressure Precip Precip Rate Daily Precip Total
12:00 AM 73.6°F23.1°C 72.4°F22.4°C 96% 6.1 mph E9.8 kmh E 6.1 mph9.8 kmh 30.00 in1015.9 mb 0.00 in0.0 mm 0.00 in0.0 mm 0.00 in0.0 mm
12:15 AM 73.6°F23.1°C 72.4°F22.4°C 96% 1.0 mph E1.6 kmh E 3.1 mph5.0 kmh 30.00 in1015.9 mb 0.00 in0.0 mm 0.00 in0.0 mm 0.00 in0.0 mm
12:30 AM 73.5°F23.1°C 72.3°F22.4°C 96% 1.0 mph E1.6 kmh E 3.1 mph5.0 kmh 30.00 in1015.9 mb 0.00 in0.0 mm 0.00 in0.0 mm 0.00 in0.0 mm
12:45 AM 73.4°F23.0°C 72.2°F22.3°C 96% 0.1 mph ENE0.2 kmh ENE 1.1 mph1.8 kmh 30.00 in1015.9 mb 0.00 in0.0 mm 0.00 in0.0 mm 0.00 in0.0 mm
01:00 AM 73.2°F22.9°C 72.0°F22.2°C 96% 0.1 mph ENE0.2 kmh ENE 1.1 mph1.8 kmh 30.00 in1015.9 mb 0.00 in0.0 mm 0.00 in0.0 mm 0.00 in0.0 mm
01:15 AM 73.1°F22.8°C 71.9°F22.2°C 96% 4.1 mph N6.6 kmh N 5.1 mph8.2 kmh 30.00 in1015.9 mb 0.00 in0.0 mm 0.00 in0.0 mm 0.00 in0.0 mm
01:30 AM 72.8°F22.7°C 71.6°F22.0°C 96% 2.0 mph E3.2 kmh E 4.1 mph6.6 kmh 30.00 in1015.9 mb 0.00 in0.0 mm 0.00 in0.0 mm 0.00 in0.0 mm
01:45 AM 72.6°F22.6°C 71.4°F21.9°C 96% 0.1 mph E0.2 kmh E 2.1 mph3.4 kmh 30.00 in1015.9 mb 0.00 in0.0 mm 0.00 in0.0 mm 0.00 in0.0 mm
02:00 AM 72.3°F22.4°C 71.1°F21.7°C 96% 2.0 mph NE3.2 kmh NE 4.1 mph6.6 kmh 30.00 in1015.9 mb 0.00 in0.0 mm 0.00 in0.0 mm 0.00 in0.0 mm
02:15 AM 72.1°F22.3°C 70.9°F21.6°C 96% 2.0 mph NE3.2 kmh NE 3.1 mph5.0 kmh 30.01 in1016.3 mb 0.00 in0.0 mm 0.00 in0.0 mm 0.00 in0.0 mm
02:30 AM 72.0°F22.2°C 70.8°F21.6°C 96% 0.1 mph E0.2 kmh E 5.1 mph8.2 kmh 30.01 in1016.3 mb 0.00 in0.0 mm 0.00 in0.0 mm 0.00 in0.0 mm
02:45 AM 71.9°F22.2°C 70.7°F21.5°C 96% 3.0 mph N4.8 kmh N 3.1 mph5.0 kmh 30.02 in1016.6 mb 0.12 in3.0 mm 0.48 in12.2 mm 0.12 in3.0 mm
03:00 AM 71.7°F22.1°C 70.5°F21.4°C 96% 0.1 mph W0.2 kmh W 3.1 mph5.0 kmh 30.03 in1016.9 mb 0.43 in10.9 mm 0.41 in10.4 mm 0.43 in10.9 mm
03:15 AM 71.4°F21.9°C 70.2°F21.2°C 96% 6.1 mph N9.8 kmh N 8.1 mph13.0 kmh 30.02 in1016.6 mb 0.54 in13.7 mm 0.44 in11.2 mm 0.54 in13.7 mm
03:30 AM 70.9°F21.6°C 69.7°F20.9°C 96% 6.1 mph N9.8 kmh N 11.2 mph18.0 kmh 30.01 in1016.3 mb 0.55 in14.0 mm 0.04 in1.0 mm 0.55 in14.0 mm
03:45 AM 70.5°F21.4°C 69.3°F20.7°C 96% 10.1 mph NNE16.3 kmh NNE 14.2 mph22.9 kmh 30.01 in1016.3 mb 0.44 in11.2 mm 0.00 in0.0 mm 0.55 in14.0 mm
04:00 AM 70.3°F21.3°C 69.1°F20.6°C 96% 2.0 mph N3.2 kmh N 3.1 mph5.0 kmh 30.02 in1016.6 mb 0.13 in3.3 mm 0.00 in0.0 mm 0.55 in14.0 mm
04:15 AM 70.1°F21.2°C 68.6°F20.3°C 95% 4.1 mph ENE6.6 kmh ENE 4.1 mph6.6 kmh 30.02 in1016.6 mb 0.01 in0.3 mm 0.00 in0.0 mm 0.55 in14.0 mm
04:30 AM 69.9°F21.1°C 68.7°F20.4°C 96% 1.0 mph NNE1.6 kmh NNE 5.1 mph8.2 kmh 30.03 in1016.9 mb 0.00 in0.0 mm 0.00 in0.0 mm 0.55 in14.0 mm
04:45 AM 69.7°F20.9°C 68.5°F20.3°C 96% 7.1 mph NNE11.4 kmh NNE 8.1 mph13.0 kmh 30.03 in1016.9 mb 0.00 in0.0 mm 0.00 in0.0 mm 0.55 in14.0 mm
05:00 AM 69.6°F20.9°C 68.1°F20.1°C 95% 6.1 mph N9.8 kmh N 8.1 mph13.0 kmh 30.04 in1017.3 mb 0.00 in0.0 mm 0.00 in0.0 mm 0.55 in14.0 mm
05:15 AM 69.5°F20.8°C 68.0°F20.0°C 95% 8.1 mph NE13.0 kmh NE 8.1 mph13.0 kmh 30.04 in1017.3 mb 0.00 in0.0 mm 0.00 in0.0 mm 0.55 in14.0 mm
05:30 AM 69.1°F20.6°C 67.7°F19.8°C 95% 3.0 mph N4.8 kmh N 9.1 mph14.6 kmh 30.05 in1017.6 mb 0.00 in0.0 mm 0.00 in0.0 mm 0.55 in14.0 mm
05:45 AM 68.9°F20.5°C 67.5°F19.7°C 95% 7.1 mph NNE11.4 kmh NNE 10.1 mph16.3 kmh 30.06 in1017.9 mb 0.00 in0.0 mm 0.00 in0.0 mm 0.55 in14.0 mm
06:00 AM 68.8°F20.4°C 67.4°F19.7°C 95% 3.0 mph N4.8 kmh N 5.1 mph8.2 kmh 30.06 in1017.9 mb 0.00 in0.0 mm 0.00 in0.0 mm 0.55 in14.0 mm
06:15 AM 68.7°F20.4°C 67.3°F19.6°C 95% 5.1 mph NW8.2 kmh NW 11.2 mph18.0 kmh 30.06 in1017.9 mb 0.00 in0.0 mm 0.00 in0.0 mm 0.55 in14.0 mm
06:30 AM 68.3°F20.2°C 67.2°F19.6°C 96% 4.1 mph NNW6.6 kmh NNW 5.1 mph8.2 kmh 30.07 in1018.3 mb 0.00 in0.0 mm 0.00 in0.0 mm 0.55 in14.0 mm
06:45 AM 67.9°F19.9°C 66.5°F19.2°C 95% 9.1 mph NNE14.6 kmh NNE 11.2 mph18.0 kmh 30.07 in1018.3 mb 0.00 in0.0 mm 0.00 in0.0 mm 0.55 in14.0 mm
07:00 AM 67.7°F19.8°C 66.6°F19.2°C 96% 4.1 mph NE6.6 kmh NE 8.1 mph13.0 kmh 30.08 in1018.6 mb 0.01 in0.3 mm 0.01 in0.3 mm 0.56 in14.2 mm
07:15 AM 67.6°F19.8°C 66.5°F19.2°C 96% 5.1 mph NNE8.2 kmh NNE 9.1 mph14.6 kmh 30.09 in1019.0 mb 0.01 in0.3 mm 0.00 in0.0 mm 0.56 in14.2 mm
07:30 AM 67.6°F19.8°C 66.2°F19.0°C 95% 3.0 mph NNE4.8 kmh NNE 12.2 mph19.6 kmh 30.10 in1019.3 mb 0.01 in0.3 mm 0.00 in0.0 mm 0.56 in14.2 mm
07:45 AM 67.6°F19.8°C 66.5°F19.2°C 96% 8.1 mph NE13.0 kmh NE 10.1 mph16.3 kmh 30.11 in1019.6 mb 0.01 in0.3 mm 0.00 in0.0 mm 0.56 in14.2 mm
08:00 AM 67.6°F19.8°C 66.5°F19.2°C 96% 2.0 mph NNE3.2 kmh NNE 8.1 mph13.0 kmh 30.11 in1019.6 mb 0.00 in0.0 mm 0.00 in0.0 mm 0.56 in14.2 mm
08:15 AM 67.5°F19.7°C 66.4°F19.1°C 96% 5.1 mph N8.2 kmh N 9.1 mph14.6 kmh 30.12 in1020.0 mb 0.00 in0.0 mm 0.00 in0.0 mm 0.56 in14.2 mm
08:30 AM 67.3°F19.6°C 66.2°F19.0°C 96% 3.0 mph NW4.8 kmh NW 11.2 mph18.0 kmh 30.13 in1020.3 mb 0.00 in0.0 mm 0.00 in0.0 mm 0.56 in14.2 mm
08:45 AM 67.2°F19.6°C 66.1°F18.9°C 96% 3.0 mph N4.8 kmh N 12.2 mph19.6 kmh 30.14 in1020.7 mb 0.00 in0.0 mm 0.00 in0.0 mm 0.56 in14.2 mm
09:00 AM 67.2°F19.6°C 65.8°F18.8°C 95% 3.0 mph N4.8 kmh N 6.1 mph9.8 kmh 30.14 in1020.7 mb 0.00 in0.0 mm 0.00 in0.0 mm 0.56 in14.2 mm
09:15 AM 67.2°F19.6°C 65.8°F18.8°C 95% 3.0 mph N4.8 kmh N 5.1 mph8.2 kmh 30.14 in1020.7 mb 0.00 in0.0 mm 0.00 in0.0 mm 0.56 in14.2 mm
09:30 AM 67.4°F19.7°C 66.0°F18.9°C 95% 11.1 mph NE17.9 kmh NE 11.2 mph18.0 kmh 30.14 in1020.7 mb 0.00 in0.0 mm 0.00 in0.0 mm 0.56 in14.2 mm
09:45 AM 67.5°F19.7°C 65.8°F18.8°C 94% 6.1 mph NE9.8 kmh NE 6.1 mph9.8 kmh 30.15 in1021.0 mb 0.00 in0.0 mm 0.00 in0.0 mm 0.56 in14.2 mm
10:00 AM 67.6°F19.8°C 65.9°F18.8°C 94% 9.1 mph NNE14.6 kmh NNE 9.1 mph14.6 kmh 30.15 in1021.0 mb 0.00 in0.0 mm 0.00 in0.0 mm 0.56 in14.2 mm
10:15 AM 67.3°F19.6°C 65.6°F18.7°C 94% 4.1 mph NE6.6 kmh NE 8.1 mph13.0 kmh 30.16 in1021.3 mb 0.00 in0.0 mm 0.00 in0.0 mm 0.56 in14.2 mm
10:30 AM 67.3°F19.6°C 65.9°F18.8°C 95% 4.1 mph E6.6 kmh E 7.1 mph11.4 kmh 30.16 in1021.3 mb 0.00 in0.0 mm 0.00 in0.0 mm 0.56 in14.2 mm
10:45 AM 67.3°F19.6°C 65.9°F18.8°C 95% 7.1 mph NNE11.4 kmh NNE 7.1 mph11.4 kmh 30.16 in1021.3 mb 0.00 in0.0 mm 0.00 in0.0 mm 0.56 in14.2 mm
11:00 AM 67.0°F19.4°C 65.6°F18.7°C 95% 11.1 mph N17.9 kmh N 11.2 mph18.0 kmh 30.17 in1021.7 mb 0.00 in0.0 mm 0.00 in0.0 mm 0.56 in14.2 mm
11:15 AM 67.3°F19.6°C 65.9°F18.8°C 95% 1.0 mph NE1.6 kmh NE 7.1 mph11.4 kmh 30.17 in1021.7 mb 0.00 in0.0 mm 0.00 in0.0 mm 0.56 in14.2 mm
11:30 AM 67.3°F19.6°C 65.6°F18.7°C 94% 2.0 mph N3.2 kmh N 6.1 mph9.8 kmh 30.17 in1021.7 mb 0.00 in0.0 mm 0.00 in0.0 mm 0.56 in14.2 mm
11:45 AM 67.0°F19.4°C 65.3°F18.5°C 94% 5.1 mph E8.2 kmh E 8.1 mph13.0 kmh 30.18 in1022.0 mb 0.00 in0.0 mm 0.00 in0.0 mm 0.56 in14.2 mm
12:00 PM 66.8°F19.3°C 65.1°F18.4°C 94% 5.1 mph NNE8.2 kmh NNE 14.2 mph22.9 kmh 30.17 in1021.7 mb 0.00 in0.0 mm 0.00 in0.0 mm 0.56 in14.2 mm
12:15 PM 66.7°F19.3°C 65.0°F18.3°C 94% 2.0 mph E3.2 kmh E 11.2 mph18.0 kmh 30.17 in1021.7 mb 0.00 in0.0 mm 0.00 in0.0 mm 0.56 in14.2 mm
12:30 PM 66.9°F19.4°C 65.2°F18.4°C 94% 3.0 mph NE4.8 kmh NE 6.1 mph9.8 kmh 30.18 in1022.0 mb 0.00 in0.0 mm 0.00 in0.0 mm 0.56 in14.2 mm
12:45 PM 67.3°F19.6°C 65.3°F18.5°C 93% 4.1 mph E6.6 kmh E 8.1 mph13.0 kmh 30.17 in1021.7 mb 0.00 in0.0 mm 0.00 in0.0 mm 0.56 in14.2 mm
01:00 PM 67.5°F19.7°C 65.1°F18.4°C 92% 7.1 mph SE11.4 kmh SE 16.2 mph26.1 kmh 30.16 in1021.3 mb 0.00 in0.0 mm 0.00 in0.0 mm 0.56 in14.2 mm
01:15 PM 67.6°F19.8°C 64.9°F18.3°C 91% 5.1 mph NE8.2 kmh NE 9.1 mph14.6 kmh 30.17 in1021.7 mb 0.00 in0.0 mm 0.00 in0.0 mm 0.56 in14.2 mm
01:30 PM 67.4°F19.7°C 64.7°F18.2°C 91% 0.1 mph NW0.2 kmh NW 10.1 mph16.3 kmh 30.17 in1021.7 mb 0.00 in0.0 mm 0.00 in0.0 mm 0.56 in14.2 mm
01:45 PM 67.4°F19.7°C 64.7°F18.2°C 91% 1.0 mph SE1.6 kmh SE 5.1 mph8.2 kmh 30.17 in1021.7 mb 0.00 in0.0 mm 0.00 in0.0 mm 0.56 in14.2 mm
02:00 PM 67.4°F19.7°C 64.4°F18.0°C 90% 1.0 mph NE1.6 kmh NE 12.2 mph19.6 kmh 30.17 in1021.7 mb 0.00 in0.0 mm 0.00 in0.0 mm 0.56 in14.2 mm
02:15 PM 67.2°F19.6°C 64.5°F18.1°C 91% 2.0 mph NE3.2 kmh NE 7.1 mph11.4 kmh 30.17 in1021.7 mb 0.00 in0.0 mm 0.00 in0.0 mm 0.56 in14.2 mm
02:30 PM 67.1°F19.5°C 64.1°F17.8°C 90% 10.1 mph N16.3 kmh N 10.1 mph16.3 kmh 30.17 in1021.7 mb 0.00 in0.0 mm 0.00 in0.0 mm 0.56 in14.2 mm
02:45 PM 67.0°F19.4°C 64.0°F17.8°C 90% 6.1 mph E9.8 kmh E 7.1 mph11.4 kmh 30.18 in1022.0 mb 0.00 in0.0 mm 0.00 in0.0 mm 0.56 in14.2 mm
03:00 PM 66.9°F19.4°C 63.9°F17.7°C 90% 12.1 mph E19.5 kmh E 12.2 mph19.6 kmh 30.19 in1022.4 mb 0.00 in0.0 mm 0.00 in0.0 mm 0.56 in14.2 mm
03:15 PM 66.8°F19.3°C 63.8°F17.7°C 90% 1.0 mph NNE1.6 kmh NNE 5.1 mph8.2 kmh 30.18 in1022.0 mb 0.00 in0.0 mm 0.00 in0.0 mm 0.56 in14.2 mm
03:30 PM 66.6°F19.2°C 63.3°F17.4°C 89% 6.1 mph NNW9.8 kmh NNW 8.1 mph13.0 kmh 30.19 in1022.4 mb 0.00 in0.0 mm 0.00 in0.0 mm 0.56 in14.2 mm
03:45 PM 66.5°F19.2°C 63.2°F17.3°C 89% 5.1 mph SE8.2 kmh SE 10.1 mph16.3 kmh 30.19 in1022.4 mb 0.00 in0.0 mm 0.00 in0.0 mm 0.56 in14.2 mm
04:00 PM 66.4°F19.1°C 63.1°F17.3°C 89% 1.0 mph SE1.6 kmh SE 12.2 mph19.6 kmh 30.20 in1022.7 mb 0.00 in0.0 mm 0.00 in0.0 mm 0.56 in14.2 mm
04:15 PM 66.0°F18.9°C 62.7°F17.1°C 89% 3.0 mph NE4.8 kmh NE 13.2 mph21.2 kmh 30.20 in1022.7 mb 0.00 in0.0 mm 0.00 in0.0 mm 0.56 in14.2 mm
04:30 PM 66.0°F18.9°C 62.7°F17.1°C 89% 3.0 mph ENE4.8 kmh ENE 5.1 mph8.2 kmh 30.20 in1022.7 mb 0.00 in0.0 mm 0.00 in0.0 mm 0.56 in14.2 mm
04:45 PM 65.8°F18.8°C 62.2°F16.8°C 88% 5.1 mph SE8.2 kmh SE 7.1 mph11.4 kmh 30.20 in1022.7 mb 0.00 in0.0 mm 0.00 in0.0 mm 0.56 in14.2 mm
05:00 PM 65.7°F18.7°C 62.4°F16.9°C 89% 1.0 mph NW1.6 kmh NW 11.2 mph18.0 kmh 30.20 in1022.7 mb 0.00 in0.0 mm 0.00 in0.0 mm 0.56 in14.2 mm
05:15 PM 65.2°F18.4°C 61.9°F16.6°C 89% 5.1 mph E8.2 kmh E 10.1 mph16.3 kmh 30.20 in1022.7 mb 0.00 in0.0 mm 0.00 in0.0 mm 0.56 in14.2 mm
05:30 PM 65.1°F18.4°C 61.5°F16.4°C 88% 7.1 mph NE11.4 kmh NE 14.2 mph22.9 kmh 30.21 in1023.0 mb 0.00 in0.0 mm 0.00 in0.0 mm 0.56 in14.2 mm
05:45 PM 65.1°F18.4°C 61.5°F16.4°C 88% 5.1 mph NE8.2 kmh NE 9.1 mph14.6 kmh 30.21 in1023.0 mb 0.00 in0.0 mm 0.00 in0.0 mm 0.56 in14.2 mm
06:00 PM 65.0°F18.3°C 61.4°F16.3°C 88% 2.0 mph E3.2 kmh E 3.1 mph5.0 kmh 30.22 in1023.4 mb 0.00 in0.0 mm 0.00 in0.0 mm 0.56 in14.2 mm
06:15 PM 65.0°F18.3°C 61.4°F16.3°C 88% 5.1 mph ENE8.2 kmh ENE 8.1 mph13.0 kmh 30.22 in1023.4 mb 0.00 in0.0 mm 0.00 in0.0 mm 0.56 in14.2 mm
06:30 PM 64.9°F18.3°C 61.3°F16.3°C 88% 2.0 mph E3.2 kmh E 4.1 mph6.6 kmh 30.23 in1023.7 mb 0.00 in0.0 mm 0.00 in0.0 mm 0.56 in14.2 mm
06:45 PM 64.8°F18.2°C 61.5°F16.4°C 89% 4.1 mph NE6.6 kmh NE 8.1 mph13.0 kmh 30.24 in1024.0 mb 0.00 in0.0 mm 0.00 in0.0 mm 0.56 in14.2 mm
07:00 PM 64.6°F18.1°C 61.6°F16.4°C 90% 4.1 mph NNE6.6 kmh NNE 7.1 mph11.4 kmh 30.24 in1024.0 mb 0.00 in0.0 mm 0.00 in0.0 mm 0.56 in14.2 mm
07:15 PM 64.3°F17.9°C 61.6°F16.4°C 91% 3.0 mph SW4.8 kmh SW 6.1 mph9.8 kmh 30.24 in1024.0 mb 0.00 in0.0 mm 0.00 in0.0 mm 0.56 in14.2 mm
07:30 PM 63.5°F17.5°C 61.2°F16.2°C 92% 6.1 mph NNW9.8 kmh NNW 8.1 mph13.0 kmh 30.24 in1024.0 mb 0.00 in0.0 mm 0.00 in0.0 mm 0.56 in14.2 mm
07:45 PM 63.1°F17.3°C 61.1°F16.2°C 93% 2.0 mph NE3.2 kmh NE 12.2 mph19.6 kmh 30.24 in1024.0 mb 0.00 in0.0 mm 0.00 in0.0 mm 0.56 in14.2 mm
08:00 PM 63.0°F17.2°C 60.7°F15.9°C 92% 3.0 mph E4.8 kmh E 6.1 mph9.8 kmh 30.25 in1024.4 mb 0.00 in0.0 mm 0.00 in0.0 mm 0.56 in14.2 mm
08:15 PM 63.2°F17.3°C 60.9°F16.1°C 92% 3.0 mph NNE4.8 kmh NNE 5.1 mph8.2 kmh 30.26 in1024.7 mb 0.00 in0.0 mm 0.00 in0.0 mm 0.56 in14.2 mm
08:30 PM 63.3°F17.4°C 60.7°F15.9°C 91% 8.1 mph E13.0 kmh E 8.1 mph13.0 kmh 30.26 in1024.7 mb 0.00 in0.0 mm 0.00 in0.0 mm 0.56 in14.2 mm
08:45 PM 63.3°F17.4°C 60.7°F15.9°C 91% 3.0 mph ESE4.8 kmh ESE 12.2 mph19.6 kmh 30.27 in1025.1 mb 0.00 in0.0 mm 0.00 in0.0 mm 0.56 in14.2 mm
09:00 PM 63.3°F17.4°C 60.7°F15.9°C 91% 3.0 mph ESE4.8 kmh ESE 7.1 mph11.4 kmh 30.26 in1024.7 mb 0.00 in0.0 mm 0.00 in0.0 mm 0.56 in14.2 mm
09:15 PM 63.2°F17.3°C 60.2°F15.7°C 90% 2.0 mph ENE3.2 kmh ENE 4.1 mph6.6 kmh 30.27 in1025.1 mb 0.00 in0.0 mm 0.00 in0.0 mm 0.56 in14.2 mm
09:30 PM 63.2°F17.3°C 60.2°F15.7°C 90% 1.0 mph E1.6 kmh E 13.2 mph21.2 kmh 30.27 in1025.1 mb 0.00 in0.0 mm 0.00 in0.0 mm 0.56 in14.2 mm
09:45 PM 63.2°F17.3°C 60.2°F15.7°C 90% 6.1 mph NNW9.8 kmh NNW 11.2 mph18.0 kmh 30.27 in1025.1 mb 0.00 in0.0 mm 0.00 in0.0 mm 0.56 in14.2 mm
10:00 PM 63.1°F17.3°C 60.1°F15.6°C 90% 4.1 mph NE6.6 kmh NE 9.1 mph14.6 kmh 30.27 in1025.1 mb 0.00 in0.0 mm 0.00 in0.0 mm 0.56 in14.2 mm
10:15 PM 63.0°F17.2°C 60.0°F15.6°C 90% 6.1 mph ENE9.8 kmh ENE 12.2 mph19.6 kmh 30.27 in1025.1 mb 0.00 in0.0 mm 0.00 in0.0 mm 0.56 in14.2 mm
10:30 PM 62.9°F17.2°C 59.6°F15.3°C 89% 3.0 mph NNE4.8 kmh NNE 7.1 mph11.4 kmh 30.27 in1025.1 mb 0.00 in0.0 mm 0.00 in0.0 mm 0.56 in14.2 mm
10:45 PM 62.8°F17.1°C 59.8°F15.4°C 90% 0.1 mph NNW0.2 kmh NNW 5.1 mph8.2 kmh 30.28 in1025.4 mb 0.00 in0.0 mm 0.00 in0.0 mm 0.56 in14.2 mm
11:00 PM 62.7°F17.1°C 59.7°F15.4°C 90% 1.0 mph SSE1.6 kmh SSE 5.1 mph8.2 kmh 30.28 in1025.4 mb 0.00 in0.0 mm 0.00 in0.0 mm 0.56 in14.2 mm
11:15 PM 62.5°F16.9°C 59.5°F15.3°C 90% 2.0 mph NNE3.2 kmh NNE 4.1 mph6.6 kmh 30.28 in1025.4 mb 0.00 in0.0 mm 0.00 in0.0 mm 0.56 in14.2 mm
11:30 PM 62.3°F16.8°C 59.3°F15.2°C 90% 0.1 mph ENE0.2 kmh ENE 7.1 mph11.4 kmh 30.29 in1025.7 mb 0.00 in0.0 mm 0.00 in0.0 mm 0.56 in14.2 mm
11:45 PM 62.1°F16.7°C 59.2°F15.1°C 90% 5.1 mph NE8.2 kmh NE 8.1 mph13.0 kmh 30.29 in1025.7 mb 0.00 in0.0 mm 0.00 in0.0 mm 0.56 in14.2 mm